Time;durP1;ratioP1;P1;durP2;ratioP2;P2;SDS_P1;SDS_P2;PMS_P1;PMS_P2;Temp;Humidity;BMP_temperature;BMP_pressure;BME280_temperature;BME280_humidity;BME280_pressure;Samples;Min_cycle;Max_cycle;Signal;HPM_P1;HPM_P2
2021/04/02 00:00:47;;;;;;;41.80;24.07;;;;;;;;;;782864;176;917269;-73
2021/04/02 00:03:15;;;;;;;33.50;19.13;;;;;;;;;;778591;179;918704;-73
2021/04/02 00:05:40;;;;;;;38.25;18.50;;;;;;;;;;767457;179;2288494;-73
2021/04/02 00:08:06;;;;;;;36.80;19.00;;;;;;;;;;783213;179;919268;-73
2021/04/02 00:10:35;;;;;;;32.23;18.43;;;;;;;;;;776056;179;921576;-73
2021/04/02 00:13:01;;;;;;;33.37;19.83;;;;;;;;;;779335;179;918703;-73
2021/04/02 00:15:27;;;;;;;33.50;20.47;;;;;;;;;;774961;179;919216;-72
2021/04/02 00:17:53;;;;;;;34.85;19.40;;;;;;;;;;774748;176;919161;-73
2021/04/02 00:20:18;;;;;;;34.87;21.53;;;;;;;;;;773880;179;919011;-73
2021/04/02 00:22:44;;;;;;;30.63;19.00;;;;;;;;;;777116;179;918955;-73
2021/04/02 00:25:11;;;;;;;27.73;18.73;;;;;;;;;;780850;179;990029;-73
2021/04/02 00:27:37;;;;;;;34.40;18.53;;;;;;;;;;779871;179;941593;-73
2021/04/02 00:30:07;;;;;;;30.03;16.17;;;;;;;;;;776202;179;918484;-73
2021/04/02 00:32:34;;;;;;;32.83;17.50;;;;;;;;;;782309;179;919577;-73
2021/04/02 00:35:00;;;;;;;25.37;15.20;;;;;;;;;;775456;179;919385;-73
2021/04/02 00:37:25;;;;;;;32.88;15.20;;;;;;;;;;777596;179;919430;-73
2021/04/02 00:39:51;;;;;;;30.30;17.67;;;;;;;;;;778576;179;918947;-73
2021/04/02 00:42:17;;;;;;;25.60;16.23;;;;;;;;;;781032;179;917983;-73
2021/04/02 00:44:43;;;;;;;32.93;18.53;;;;;;;;;;778499;179;919126;-73
2021/04/02 00:47:09;;;;;;;26.20;16.00;;;;;;;;;;777405;179;1063226;-73
2021/04/02 00:49:35;;;;;;;37.17;15.40;;;;;;;;;;778536;179;1901022;-74
2021/04/02 00:52:00;;;;;;;33.30;17.30;;;;;;;;;;777582;179;919225;-75
2021/04/02 00:54:26;;;;;;;28.20;17.23;;;;;;;;;;778639;179;918599;-73
2021/04/02 00:56:52;;;;;;;28.73;17.23;;;;;;;;;;779249;179;918403;-74
2021/04/02 00:59:18;;;;;;;24.70;15.23;;;;;;;;;;778817;179;919531;-73
2021/04/02 01:01:44;;;;;;;32.30;16.53;;;;;;;;;;773320;179;919168;-73
2021/04/02 01:04:10;;;;;;;33.80;15.23;;;;;;;;;;782447;179;919279;-73
2021/04/02 01:06:36;;;;;;;26.10;14.97;;;;;;;;;;774422;179;919618;-73
2021/04/02 01:09:01;;;;;;;29.87;15.90;;;;;;;;;;776194;179;1017782;-74
2021/04/02 01:11:27;;;;;;;26.00;14.65;;;;;;;;;;774252;179;1012480;-73
2021/04/02 01:13:53;;;;;;;26.50;14.53;;;;;;;;;;784696;179;919236;-74
2021/04/02 01:16:21;;;;;;;30.90;14.40;;;;;;;;;;780241;179;919967;-74
2021/04/02 01:18:52;;;;;;;35.27;16.13;;;;;;;;;;776237;179;917685;-74
2021/04/02 01:21:18;;;;;;;30.30;18.30;;;;;;;;;;785299;178;920388;-73
2021/04/02 01:24:00;;;;;;;44.47;21.97;;;;;;;;;;775402;179;920683;-74
2021/04/02 01:26:37;;;;;;;43.03;20.10;;;;;;;;;;775252;179;920453;-74
2021/04/02 01:29:20;;;;;;;37.17;20.27;;;;;;;;;;772953;179;1515167;-73
2021/04/02 01:31:47;;;;;;;46.33;20.17;;;;;;;;;;778242;179;919250;-73
2021/04/02 01:34:13;;;;;;;32.37;17.57;;;;;;;;;;777043;179;906463;-73
2021/04/02 01:36:38;;;;;;;42.03;20.70;;;;;;;;;;782503;179;921069;-75
2021/04/02 01:39:05;;;;;;;30.80;16.77;;;;;;;;;;773769;179;919258;-73
2021/04/02 01:41:31;;;;;;;29.63;18.03;;;;;;;;;;779039;179;1018908;-73
2021/04/02 01:43:56;;;;;;;51.30;26.70;;;;;;;;;;776337;179;920052;-74
2021/04/02 01:46:22;;;;;;;47.77;23.30;;;;;;;;;;784067;177;917663;-73
2021/04/02 01:48:48;;;;;;;42.13;22.97;;;;;;;;;;772133;179;1341451;-72
2021/04/02 01:51:14;;;;;;;37.58;20.55;;;;;;;;;;775390;179;919182;-73
2021/04/02 01:53:40;;;;;;;32.30;18.90;;;;;;;;;;779459;179;919047;-73
2021/04/02 01:56:07;;;;;;;38.77;19.40;;;;;;;;;;778701;179;916786;-73
2021/04/02 01:58:32;;;;;;;34.63;20.00;;;;;;;;;;773711;179;918279;-73
2021/04/02 02:00:58;;;;;;;30.93;18.80;;;;;;;;;;782712;179;915840;-73
2021/04/02 02:03:24;;;;;;;26.60;16.30;;;;;;;;;;776118;179;919504;-74
2021/04/02 02:05:49;;;;;;;28.67;17.13;;;;;;;;;;779208;179;921791;-73
2021/04/02 02:08:15;;;;;;;27.87;17.20;;;;;;;;;;782270;179;921361;-73
2021/04/02 02:10:41;;;;;;;31.13;16.60;;;;;;;;;;775755;179;918804;-73
2021/04/02 02:13:07;;;;;;;30.47;15.90;;;;;;;;;;778853;179;915664;-74
2021/04/02 02:15:33;;;;;;;28.65;17.50;;;;;;;;;;775338;179;1102746;-73
2021/04/02 02:17:59;;;;;;;35.27;17.60;;;;;;;;;;778733;179;918695;-74
2021/04/02 02:20:25;;;;;;;30.73;17.60;;;;;;;;;;775637;179;919730;-73
2021/04/02 02:22:58;;;;;;;28.58;16.73;;;;;;;;;;767529;179;920301;-74
2021/04/02 02:25:24;;;;;;;39.57;17.10;;;;;;;;;;781179;179;917390;-74
2021/04/02 02:27:49;;;;;;;26.03;15.90;;;;;;;;;;777510;179;921226;-74
2021/04/02 02:30:16;;;;;;;24.03;15.90;;;;;;;;;;777363;179;915977;-74
2021/04/02 02:32:42;;;;;;;23.10;13.23;;;;;;;;;;779434;179;912323;-73
2021/04/02 02:35:09;;;;;;;23.33;13.93;;;;;;;;;;777162;179;1000236;-74
2021/04/02 02:37:35;;;;;;;27.83;13.50;;;;;;;;;;776592;178;1013921;-73
2021/04/02 02:40:00;;;;;;;24.20;13.50;;;;;;;;;;775455;179;919216;-74
2021/04/02 02:42:26;;;;;;;24.60;12.57;;;;;;;;;;783442;179;915048;-73
2021/04/02 02:44:53;;;;;;;27.73;14.37;;;;;;;;;;774611;179;915898;-74
2021/04/02 02:47:19;;;;;;;25.70;14.30;;;;;;;;;;776237;179;914948;-75
2021/04/02 02:49:45;;;;;;;28.80;15.40;;;;;;;;;;781880;179;923207;-75
2021/04/02 02:52:11;;;;;;;28.30;15.50;;;;;;;;;;775574;179;915126;-75
2021/04/02 02:54:36;;;;;;;26.80;14.50;;;;;;;;;;779631;179;918810;-75
2021/04/02 02:57:03;;;;;;;23.90;13.67;;;;;;;;;;776009;179;1722082;-75
2021/04/02 02:59:29;;;;;;;25.13;13.80;;;;;;;;;;778113;179;919543;-76
2021/04/02 03:01:54;;;;;;;25.23;13.67;;;;;;;;;;774054;179;955301;-75
2021/04/02 03:04:20;;;;;;;33.77;18.50;;;;;;;;;;776772;179;918813;-74
2021/04/02 03:06:46;;;;;;;28.63;15.10;;;;;;;;;;781499;179;919198;-74
2021/04/02 03:09:12;;;;;;;28.73;16.17;;;;;;;;;;778301;179;919094;-75
2021/04/02 03:11:38;;;;;;;26.93;17.50;;;;;;;;;;775818;179;920038;-75
2021/04/02 03:14:04;;;;;;;31.00;21.80;;;;;;;;;;781556;179;919702;-74
2021/04/02 03:16:29;;;;;;;31.80;18.27;;;;;;;;;;759066;179;3859965;-75
2021/04/02 03:18:55;;;;;;;35.33;19.43;;;;;;;;;;776980;179;918837;-74
2021/04/02 03:21:21;;;;;;;29.70;15.90;;;;;;;;;;780007;179;929838;-76
2021/04/02 03:23:47;;;;;;;27.20;16.10;;;;;;;;;;777725;179;920675;-74
2021/04/02 03:26:14;;;;;;;34.47;17.87;;;;;;;;;;774352;179;944896;-74
2021/04/02 03:28:40;;;;;;;31.83;19.70;;;;;;;;;;773647;179;918109;-73
2021/04/02 03:31:06;;;;;;;36.03;19.83;;;;;;;;;;783212;176;918696;-74
2021/04/02 03:33:32;;;;;;;31.50;18.00;;;;;;;;;;774747;179;919011;-74
2021/04/02 03:35:58;;;;;;;33.17;18.93;;;;;;;;;;776715;179;921162;-74
2021/04/02 03:38:24;;;;;;;31.47;17.43;;;;;;;;;;784740;179;920463;-75
2021/04/02 03:40:50;;;;;;;29.43;19.77;;;;;;;;;;779526;179;920470;-75
2021/04/02 03:43:16;;;;;;;40.65;22.13;;;;;;;;;;775973;177;1019222;-74
2021/04/02 03:45:41;;;;;;;32.60;19.23;;;;;;;;;;784281;179;919851;-74
2021/04/02 03:48:08;;;;;;;31.40;18.90;;;;;;;;;;775175;179;917758;-74
2021/04/02 03:50:34;;;;;;;40.03;19.85;;;;;;;;;;776468;179;917881;-73
2021/04/02 03:53:07;;;;;;;35.83;19.97;;;;;;;;;;779641;179;920193;-74
2021/04/02 03:55:32;;;;;;;35.30;19.17;;;;;;;;;;784402;179;920395;-74
2021/04/02 03:57:58;;;;;;;30.03;19.43;;;;;;;;;;776652;179;918033;-74
2021/04/02 04:00:25;;;;;;;39.63;20.67;;;;;;;;;;777825;179;914198;-74
2021/04/02 04:02:54;;;;;;;49.07;25.60;;;;;;;;;;781390;179;912595;-76
2021/04/02 04:05:20;;;;;;;47.83;26.83;;;;;;;;;;778202;179;916711;-74
2021/04/02 04:07:46;;;;;;;45.03;26.40;;;;;;;;;;779384;179;915457;-75
2021/04/02 04:10:12;;;;;;;47.93;28.03;;;;;;;;;;774726;179;918990;-74
2021/04/02 04:12:38;;;;;;;45.20;27.33;;;;;;;;;;786108;176;919003;-74
2021/04/02 04:15:04;;;;;;;48.33;26.83;;;;;;;;;;775533;179;919489;-74
2021/04/02 04:17:30;;;;;;;50.78;27.17;;;;;;;;;;778435;179;918526;-75
2021/04/02 04:19:56;;;;;;;52.37;27.70;;;;;;;;;;779876;179;919875;-74
2021/04/02 04:22:22;;;;;;;57.10;26.90;;;;;;;;;;776151;179;919175;-74
2021/04/02 04:24:48;;;;;;;59.70;30.50;;;;;;;;;;774236;179;919146;-74
2021/04/02 04:27:13;;;;;;;57.77;27.47;;;;;;;;;;781879;179;918919;-75
2021/04/02 04:29:41;;;;;;;57.10;31.50;;;;;;;;;;777061;179;919235;-74
2021/04/02 04:32:06;;;;;;;49.87;27.10;;;;;;;;;;777652;179;910309;-74
2021/04/02 04:34:32;;;;;;;47.72;27.33;;;;;;;;;;779063;179;929586;-74
2021/04/02 04:36:58;;;;;;;51.20;26.67;;;;;;;;;;777023;179;919275;-75
2021/04/02 04:39:24;;;;;;;41.73;22.40;;;;;;;;;;773702;179;919521;-73
2021/04/02 04:41:49;;;;;;;42.83;19.93;;;;;;;;;;777605;179;918964;-74
2021/04/02 04:44:16;;;;;;;38.90;21.80;;;;;;;;;;782677;179;918892;-74
2021/04/02 04:46:41;;;;;;;40.23;22.53;;;;;;;;;;764207;179;2927757;-74
2021/04/02 04:49:07;;;;;;;36.90;20.27;;;;;;;;;;775674;179;919425;-73
2021/04/02 04:51:33;;;;;;;29.00;16.87;;;;;;;;;;780059;179;918481;-73
2021/04/02 04:53:59;;;;;;;28.17;18.13;;;;;;;;;;780393;177;919394;-75
2021/04/02 04:56:25;;;;;;;28.25;18.67;;;;;;;;;;779455;179;920950;-74
2021/04/02 04:58:51;;;;;;;35.05;22.90;;;;;;;;;;783229;179;1021405;-74
2021/04/02 05:01:17;;;;;;;33.77;19.80;;;;;;;;;;777304;179;919891;-72
2021/04/02 05:03:43;;;;;;;34.53;20.10;;;;;;;;;;776953;179;919930;-74
2021/04/02 05:06:09;;;;;;;32.63;19.35;;;;;;;;;;775187;179;980597;-73
2021/04/02 05:08:36;;;;;;;47.67;23.93;;;;;;;;;;779908;176;1902876;-74
2021/04/02 05:11:01;;;;;;;38.67;26.43;;;;;;;;;;773565;179;915375;-74
2021/04/02 05:13:27;;;;;;;51.60;30.03;;;;;;;;;;778579;179;915420;-72
2021/04/02 05:15:53;;;;;;;35.53;21.53;;;;;;;;;;782898;179;963118;-74
2021/04/02 05:18:19;;;;;;;34.80;22.70;;;;;;;;;;779450;179;918573;-74
2021/04/02 05:20:45;;;;;;;42.53;23.93;;;;;;;;;;778213;179;918124;-75
2021/04/02 05:23:11;;;;;;;38.97;25.40;;;;;;;;;;780994;179;919180;-74
2021/04/02 05:25:36;;;;;;;52.37;28.90;;;;;;;;;;775966;179;1020898;-75
2021/04/02 05:28:02;;;;;;;48.20;28.40;;;;;;;;;;767581;179;2086891;-75
2021/04/02 05:30:28;;;;;;;56.57;35.57;;;;;;;;;;782009;179;919010;-75
2021/04/02 05:32:54;;;;;;;69.67;35.70;;;;;;;;;;773523;179;918970;-74
2021/04/02 05:35:20;;;;;;;50.00;25.67;;;;;;;;;;777026;179;918546;-75
2021/04/02 05:37:46;;;;;;;59.03;36.30;;;;;;;;;;773556;179;919149;-75
2021/04/02 05:40:12;;;;;;;76.70;42.00;;;;;;;;;;783281;179;918787;-75
2021/04/02 05:42:38;;;;;;;93.23;46.43;;;;;;;;;;774087;179;920976;-76
2021/04/02 05:45:04;;;;;;;71.87;33.00;;;;;;;;;;773307;179;1401440;-73
2021/04/02 05:47:30;;;;;;;83.43;45.70;;;;;;;;;;781138;179;918597;-74
2021/04/02 05:49:56;;;;;;;71.53;39.63;;;;;;;;;;776883;179;918843;-75
2021/04/02 05:52:22;;;;;;;54.77;28.30;;;;;;;;;;774457;179;919605;-75
2021/04/02 05:54:48;;;;;;;57.27;35.30;;;;;;;;;;782559;179;919226;-74
2021/04/02 05:57:15;;;;;;;57.93;31.67;;;;;;;;;;777412;179;918961;-74
2021/04/02 05:59:42;;;;;;;54.57;32.53;;;;;;;;;;776915;179;918698;-76
2021/04/02 06:02:08;;;;;;;69.87;38.90;;;;;;;;;;778510;179;920601;-74
2021/04/02 06:04:34;;;;;;;71.27;36.10;;;;;;;;;;782711;176;918360;-76
2021/04/02 06:06:59;;;;;;;48.08;27.40;;;;;;;;;;778953;178;928407;-73
2021/04/02 06:09:25;;;;;;;67.77;35.87;;;;;;;;;;775687;179;919506;-72
2021/04/02 06:11:51;;;;;;;53.30;28.65;;;;;;;;;;784062;179;908510;-75
2021/04/02 06:14:17;;;;;;;42.23;20.87;;;;;;;;;;776659;179;919609;-73
2021/04/02 06:16:49;;;;;;;57.67;26.97;;;;;;;;;;777428;179;919312;-75
2021/04/02 06:19:15;;;;;;;58.00;30.83;;;;;;;;;;781632;179;882566;-73
2021/04/02 06:21:43;;;;;;;63.57;31.50;;;;;;;;;;777100;179;946324;-74
2021/04/02 06:24:10;;;;;;;54.27;29.50;;;;;;;;;;779814;179;870296;-73
2021/04/02 06:26:35;;;;;;;39.43;21.53;;;;;;;;;;776648;179;922308;-73
2021/04/02 06:29:01;;;;;;;54.90;24.50;;;;;;;;;;780857;179;1067692;-74
2021/04/02 06:31:28;;;;;;;51.03;28.73;;;;;;;;;;777318;179;920384;-73
2021/04/02 06:33:53;;;;;;;51.97;25.00;;;;;;;;;;767432;179;2201145;-73
2021/04/02 06:36:18;;;;;;;56.23;26.97;;;;;;;;;;782385;179;917623;-73
2021/04/02 06:38:44;;;;;;;62.07;30.30;;;;;;;;;;776672;179;953045;-74
2021/04/02 06:41:10;;;;;;;58.07;28.57;;;;;;;;;;774957;179;908364;-73
2021/04/02 06:43:41;;;;;;;50.88;26.25;;;;;;;;;;782040;179;912992;-74
2021/04/02 06:46:05;;;;;;;55.30;27.10;;;;;;;;;;777246;179;912331;-74
2021/04/02 06:48:31;;;;;;;73.20;32.80;;;;;;;;;;779846;179;919252;-74
2021/04/02 06:50:57;;;;;;;75.80;35.80;;;;;;;;;;776061;179;919100;-72
2021/04/02 06:53:22;;;;;;;59.20;28.30;;;;;;;;;;781804;179;919201;-74
2021/04/02 06:55:48;;;;;;;61.93;32.83;;;;;;;;;;773547;179;919483;-74
2021/04/02 06:58:14;;;;;;;60.80;27.73;;;;;;;;;;775031;179;943125;-72
2021/04/02 07:00:40;;;;;;;56.27;29.37;;;;;;;;;;782536;179;727211;-76
2021/04/02 07:03:06;;;;;;;73.33;35.80;;;;;;;;;;782529;179;628700;-75
2021/04/02 07:05:32;;;;;;;77.03;33.97;;;;;;;;;;776398;179;914410;-74
2021/04/02 07:07:58;;;;;;;59.17;27.90;;;;;;;;;;784625;179;628654;-75
2021/04/02 07:10:24;;;;;;;65.90;33.30;;;;;;;;;;779677;179;662871;-75
2021/04/02 07:12:53;;;;;;;79.47;30.93;;;;;;;;;;781139;179;644011;-75
2021/04/02 07:15:21;;;;;;;72.23;32.83;;;;;;;;;;780825;179;713576;-76
2021/04/02 07:17:46;;;;;;;57.67;27.83;;;;;;;;;;783745;179;654268;-74
2021/04/02 07:20:13;;;;;;;40.30;18.77;;;;;;;;;;784083;179;624808;-75
2021/04/02 07:22:39;;;;;;;47.37;25.80;;;;;;;;;;777659;179;685570;-74
2021/04/02 07:25:06;;;;;;;53.37;26.20;;;;;;;;;;787396;179;620289;-74
2021/04/02 07:27:32;;;;;;;53.33;28.13;;;;;;;;;;781493;179;616396;-75
2021/04/02 07:29:58;;;;;;;46.73;22.20;;;;;;;;;;783637;179;693101;-75
2021/04/02 07:32:24;;;;;;;57.80;29.90;;;;;;;;;;778825;179;622599;-74
2021/04/02 07:34:50;;;;;;;52.67;27.77;;;;;;;;;;784078;179;655754;-75
2021/04/02 07:37:17;;;;;;;58.20;27.53;;;;;;;;;;779588;179;635813;-74
2021/04/02 07:39:42;;;;;;;49.20;26.47;;;;;;;;;;782974;179;644435;-76
2021/04/02 07:42:08;;;;;;;51.67;28.50;;;;;;;;;;781458;179;658499;-74
2021/04/02 07:44:35;;;;;;;51.10;23.87;;;;;;;;;;770129;180;622139;-75
2021/04/02 07:47:02;;;;;;;50.63;25.50;;;;;;;;;;768174;180;623174;-75
2021/04/02 07:49:28;;;;;;;52.97;22.27;;;;;;;;;;778332;180;626380;-77
2021/04/02 07:51:54;;;;;;;52.33;27.40;;;;;;;;;;769841;180;627712;-78
2021/04/02 07:54:20;;;;;;;59.57;27.03;;;;;;;;;;736256;190;633128;-77
2021/04/02 07:56:47;;;;;;;51.67;24.43;;;;;;;;;;767369;183;619874;-76
2021/04/02 07:59:13;;;;;;;46.37;23.73;;;;;;;;;;776744;180;632509;-76
2021/04/02 08:01:38;;;;;;;41.97;19.47;;;;;;;;;;771101;181;762610;-75
2021/04/02 08:04:04;;;;;;;46.60;22.07;;;;;;;;;;776318;179;678912;-76
2021/04/02 08:06:32;;;;;;;40.30;19.70;;;;;;;;;;786313;179;639395;-75
2021/04/02 08:08:57;;;;;;;32.40;15.50;;;;;;;;;;776381;179;633477;-75
2021/04/02 08:11:29;;;;;;;52.90;24.20;;;;;;;;;;782591;179;627444;-75
2021/04/02 08:13:56;;;;;;;49.87;23.70;;;;;;;;;;780472;179;628975;-73
2021/04/02 08:16:26;;;;;;;40.57;20.50;;;;;;;;;;786971;179;630296;-75
2021/04/02 08:18:58;;;;;;;47.33;23.33;;;;;;;;;;780466;179;645903;-74
2021/04/02 08:21:24;;;;;;;27.97;15.43;;;;;;;;;;783911;179;637678;-75
2021/04/02 08:23:50;;;;;;;37.27;18.57;;;;;;;;;;776995;179;725688;-75
2021/04/02 08:26:15;;;;;;;23.63;13.73;;;;;;;;;;781885;179;627745;-75
2021/04/02 08:28:41;;;;;;;33.20;15.50;;;;;;;;;;778967;179;633987;-75
2021/04/02 08:31:07;;;;;;;28.40;15.73;;;;;;;;;;784929;179;641371;-74
2021/04/02 08:33:33;;;;;;;34.27;14.07;;;;;;;;;;785296;179;625214;-75
2021/04/02 08:35:59;;;;;;;29.57;14.47;;;;;;;;;;782223;179;628564;-75
2021/04/02 08:38:27;;;;;;;31.63;18.30;;;;;;;;;;779774;179;919071;-74
2021/04/02 08:40:55;;;;;;;30.87;16.67;;;;;;;;;;784251;179;619208;-75
2021/04/02 08:43:22;;;;;;;34.87;19.37;;;;;;;;;;782561;179;628085;-76
2021/04/02 08:45:45;;;;;;;40.33;21.80;;;;;;;;;;749132;179;5462622;-76
2021/04/02 08:48:11;;;;;;;30.87;15.40;;;;;;;;;;781018;179;629579;-74
2021/04/02 08:50:37;;;;;;;33.20;18.20;;;;;;;;;;779856;176;628345;-75
2021/04/02 08:53:03;;;;;;;30.80;16.63;;;;;;;;;;779388;179;648645;-74
2021/04/02 08:55:29;;;;;;;28.67;15.77;;;;;;;;;;778596;179;627279;-75
2021/04/02 08:57:55;;;;;;;25.30;14.70;;;;;;;;;;784941;179;626646;-75
2021/04/02 09:00:22;;;;;;;21.67;11.80;;;;;;;;;;780246;179;631057;-75
2021/04/02 09:02:47;;;;;;;18.63;11.40;;;;;;;;;;782634;179;619930;-76
2021/04/02 09:05:14;;;;;;;22.00;14.50;;;;;;;;;;781229;179;625827;-75
2021/04/02 09:07:39;;;;;;;22.73;13.53;;;;;;;;;;780542;179;633436;-74
2021/04/02 09:10:11;;;;;;;22.70;10.47;;;;;;;;;;776718;179;816797;-75
2021/04/02 09:12:37;;;;;;;29.90;16.97;;;;;;;;;;779892;179;621846;-74
2021/04/02 09:15:04;;;;;;;20.93;11.43;;;;;;;;;;781890;179;630860;-75
2021/04/02 09:17:29;;;;;;;29.57;17.43;;;;;;;;;;780632;179;632110;-74
2021/04/02 09:19:55;;;;;;;23.83;12.83;;;;;;;;;;779437;179;707445;-74
2021/04/02 09:22:21;;;;;;;18.93;9.50;;;;;;;;;;783089;179;628314;-75
2021/04/02 09:24:47;;;;;;;27.40;17.07;;;;;;;;;;781703;179;625520;-76
2021/04/02 09:27:16;;;;;;;30.10;20.20;;;;;;;;;;773990;179;1530084;-74
2021/04/02 09:29:42;;;;;;;21.87;15.60;;;;;;;;;;781541;179;617723;-73
2021/04/02 09:32:08;;;;;;;28.00;18.87;;;;;;;;;;780025;177;735260;-75
2021/04/02 09:34:34;;;;;;;25.57;15.33;;;;;;;;;;779627;179;684629;-78
2021/04/02 09:37:00;;;;;;;18.93;10.20;;;;;;;;;;778845;179;618197;-77
2021/04/02 09:39:26;;;;;;;16.53;9.63;;;;;;;;;;784739;179;618333;-74
2021/04/02 09:41:54;;;;;;;18.27;9.93;;;;;;;;;;780742;177;623215;-76
2021/04/02 09:44:20;;;;;;;17.30;9.37;;;;;;;;;;781702;179;806730;-75
2021/04/02 09:46:47;;;;;;;13.70;11.40;;;;;;;;;;783427;179;630209;-75
2021/04/02 09:49:12;;;;;;;16.30;9.40;;;;;;;;;;783496;179;618250;-76
2021/04/02 09:51:39;;;;;;;14.57;9.43;;;;;;;;;;780553;179;637769;-77
2021/04/02 09:54:05;;;;;;;22.93;10.17;;;;;;;;;;781336;179;632825;-74
2021/04/02 09:56:35;;;;;;;19.97;10.07;;;;;;;;;;782551;179;630282;-75
2021/04/02 09:59:01;;;;;;;21.50;12.00;;;;;;;;;;780868;179;626746;-76
2021/04/02 10:01:27;;;;;;;20.53;11.83;;;;;;;;;;780170;179;658488;-76
2021/04/02 10:03:53;;;;;;;21.80;11.50;;;;;;;;;;781925;179;626261;-76
2021/04/02 10:06:19;;;;;;;25.80;14.37;;;;;;;;;;780504;179;627640;-76
2021/04/02 10:08:45;;;;;;;18.90;12.63;;;;;;;;;;779222;179;623538;-74
2021/04/02 10:11:10;;;;;;;16.13;9.63;;;;;;;;;;784245;179;619766;-74
2021/04/02 10:13:36;;;;;;;21.00;12.13;;;;;;;;;;779501;179;646359;-76
2021/04/02 10:16:02;;;;;;;22.90;13.77;;;;;;;;;;782658;179;637241;-76
2021/04/02 10:18:29;;;;;;;75.07;32.80;;;;;;;;;;778430;179;623704;-74
2021/04/02 10:20:54;;;;;;;27.13;11.63;;;;;;;;;;784442;179;626217;-74
2021/04/02 10:23:20;;;;;;;30.70;16.87;;;;;;;;;;778217;179;619740;-75
2021/04/02 10:25:46;;;;;;;22.57;11.77;;;;;;;;;;780179;179;762848;-75
2021/04/02 10:28:11;;;;;;;22.90;13.90;;;;;;;;;;782128;179;628787;-76
2021/04/02 10:30:37;;;;;;;18.70;11.20;;;;;;;;;;780788;179;633803;-76
2021/04/02 10:33:03;;;;;;;19.47;11.27;;;;;;;;;;780226;179;664004;-75
2021/04/02 10:35:31;;;;;;;20.20;12.30;;;;;;;;;;783700;179;629712;-76
2021/04/02 10:37:55;;;;;;;21.00;12.30;;;;;;;;;;781174;179;624692;-73
2021/04/02 10:40:21;;;;;;;22.73;11.60;;;;;;;;;;778427;179;641050;-75
2021/04/02 10:42:47;;;;;;;48.00;21.80;;;;;;;;;;785170;179;618710;-73
2021/04/02 10:45:13;;;;;;;27.43;14.73;;;;;;;;;;779341;179;625219;-75
2021/04/02 10:47:39;;;;;;;25.87;15.40;;;;;;;;;;781684;179;627715;-75
2021/04/02 10:50:05;;;;;;;17.43;11.73;;;;;;;;;;778559;179;643649;-75
2021/04/02 10:52:31;;;;;;;28.00;15.80;;;;;;;;;;788233;178;709687;-75
2021/04/02 10:54:57;;;;;;;27.20;16.40;;;;;;;;;;780072;179;626183;-75
2021/04/02 10:57:23;;;;;;;36.43;21.20;;;;;;;;;;783895;179;619617;-76
2021/04/02 10:59:49;;;;;;;30.77;16.80;;;;;;;;;;783762;179;718213;-75
2021/04/02 11:02:16;;;;;;;34.43;20.90;;;;;;;;;;782977;179;632316;-75
2021/04/02 11:04:41;;;;;;;33.20;17.70;;;;;;;;;;779555;178;664153;-76
2021/04/02 11:07:11;;;;;;;32.57;17.17;;;;;;;;;;786760;179;638576;-75
2021/04/02 11:09:37;;;;;;;51.33;22.30;;;;;;;;;;784471;179;634254;-77
2021/04/02 11:12:03;;;;;;;24.60;13.47;;;;;;;;;;781160;179;637398;-76
2021/04/02 11:14:33;;;;;;;26.63;14.60;;;;;;;;;;779960;179;627442;-76
2021/04/02 11:17:01;;;;;;;32.20;16.87;;;;;;;;;;786801;179;624481;-74
2021/04/02 11:19:27;;;;;;;25.57;14.57;;;;;;;;;;782062;179;626034;-75
2021/04/02 11:21:53;;;;;;;27.87;16.80;;;;;;;;;;778975;179;868795;-76
2021/04/02 11:24:19;;;;;;;41.33;22.53;;;;;;;;;;783054;179;629544;-75
2021/04/02 11:26:45;;;;;;;31.50;18.40;;;;;;;;;;779503;179;642081;-76
2021/04/02 11:29:11;;;;;;;28.40;16.80;;;;;;;;;;781660;179;786813;-76
2021/04/02 11:31:36;;;;;;;28.48;14.30;;;;;;;;;;778211;179;620877;-75
2021/04/02 11:34:03;;;;;;;32.50;19.90;;;;;;;;;;786198;179;626211;-78
2021/04/02 11:36:28;;;;;;;33.00;17.10;;;;;;;;;;778798;179;645021;-76
2021/04/02 11:38:54;;;;;;;22.43;13.80;;;;;;;;;;781872;179;628608;-76
2021/04/02 11:41:20;;;;;;;20.67;10.80;;;;;;;;;;778085;179;1494706;-76
2021/04/02 11:43:46;;;;;;;30.17;17.23;;;;;;;;;;783453;179;626456;-74
2021/04/02 11:46:12;;;;;;;21.20;13.67;;;;;;;;;;781037;179;631215;-74
2021/04/02 11:48:39;;;;;;;20.90;13.87;;;;;;;;;;785217;179;626732;-76
2021/04/02 11:51:05;;;;;;;26.87;14.63;;;;;;;;;;778708;179;624191;-72
2021/04/02 11:53:31;;;;;;;31.87;21.03;;;;;;;;;;781690;179;626152;-75
2021/04/02 11:55:56;;;;;;;30.83;15.57;;;;;;;;;;782393;179;676373;-76
2021/04/02 11:58:22;;;;;;;26.83;16.83;;;;;;;;;;784073;179;618274;-76
2021/04/02 12:00:48;;;;;;;23.53;12.67;;;;;;;;;;780695;179;638076;-76
2021/04/02 12:03:14;;;;;;;23.93;12.80;;;;;;;;;;782406;178;618705;-74
2021/04/02 12:05:40;;;;;;;32.93;18.50;;;;;;;;;;789885;179;617837;-74
2021/04/02 12:08:06;;;;;;;20.00;13.43;;;;;;;;;;782842;179;641462;-76
2021/04/02 12:10:32;;;;;;;53.23;31.30;;;;;;;;;;782229;179;632004;-77
2021/04/02 12:12:58;;;;;;;25.87;14.67;;;;;;;;;;782968;179;634743;-74
2021/04/02 12:15:24;;;;;;;22.92;14.38;;;;;;;;;;781249;179;634272;-75
2021/04/02 12:17:50;;;;;;;33.93;20.20;;;;;;;;;;779852;179;629104;-76
2021/04/02 12:20:15;;;;;;;34.07;20.03;;;;;;;;;;784509;179;634615;-76
2021/04/02 12:22:41;;;;;;;20.70;13.77;;;;;;;;;;782427;176;648445;-76
2021/04/02 12:25:07;;;;;;;24.33;10.70;;;;;;;;;;780962;179;627153;-76
2021/04/02 12:27:33;;;;;;;25.30;17.57;;;;;;;;;;777253;179;705030;-74
2021/04/02 12:29:59;;;;;;;28.27;13.63;;;;;;;;;;787355;179;636097;-73
2021/04/02 12:32:25;;;;;;;54.37;29.97;;;;;;;;;;783477;179;625942;-74
2021/04/02 12:34:51;;;;;;;20.20;13.77;;;;;;;;;;779842;179;625561;-73
2021/04/02 12:37:17;;;;;;;17.77;12.17;;;;;;;;;;784935;179;617821;-74
2021/04/02 12:39:43;;;;;;;20.85;12.07;;;;;;;;;;778762;179;627470;-72
2021/04/02 12:42:09;;;;;;;20.90;14.80;;;;;;;;;;780150;179;638729;-76
2021/04/02 12:44:34;;;;;;;27.33;17.40;;;;;;;;;;782468;179;641021;-75
2021/04/02 12:47:00;;;;;;;26.47;14.47;;;;;;;;;;782047;179;635740;-75
2021/04/02 12:49:26;;;;;;;17.00;12.60;;;;;;;;;;777408;179;808877;-75
2021/04/02 12:51:52;;;;;;;15.87;11.90;;;;;;;;;;781293;179;631116;-73
2021/04/02 12:54:18;;;;;;;12.03;8.57;;;;;;;;;;783040;179;636441;-73
2021/04/02 12:56:44;;;;;;;20.10;14.05;;;;;;;;;;782138;179;631590;-69
2021/04/02 12:59:09;;;;;;;14.10;8.63;;;;;;;;;;778726;179;631603;-75
2021/04/02 13:01:35;;;;;;;18.73;11.10;;;;;;;;;;784612;179;620796;-72
2021/04/02 13:04:01;;;;;;;18.87;12.93;;;;;;;;;;777149;179;620192;-72
2021/04/02 13:06:27;;;;;;;20.53;13.67;;;;;;;;;;781276;179;635744;-74
2021/04/02 13:08:55;;;;;;;15.93;10.67;;;;;;;;;;783131;179;747114;-74
2021/04/02 13:11:21;;;;;;;14.97;10.30;;;;;;;;;;783281;179;622938;-72
2021/04/02 13:13:46;;;;;;;18.20;10.65;;;;;;;;;;780372;179;629911;-71
2021/04/02 13:16:12;;;;;;;15.87;9.90;;;;;;;;;;780232;177;639747;-74
2021/04/02 13:18:39;;;;;;;18.50;12.67;;;;;;;;;;789432;177;629722;-72
2021/04/02 13:21:05;;;;;;;13.63;10.17;;;;;;;;;;779808;178;659982;-74
2021/04/02 13:23:31;;;;;;;14.10;9.20;;;;;;;;;;781354;179;637989;-73
2021/04/02 13:25:57;;;;;;;13.70;8.17;;;;;;;;;;782761;179;692199;-74
2021/04/02 13:28:22;;;;;;;12.80;7.97;;;;;;;;;;780606;179;628960;-75
2021/04/02 13:30:48;;;;;;;12.50;8.13;;;;;;;;;;780352;179;645857;-75
2021/04/02 13:33:14;;;;;;;19.97;11.00;;;;;;;;;;784303;179;653413;-74
2021/04/02 13:35:40;;;;;;;13.90;10.20;;;;;;;;;;782289;179;651506;-71
2021/04/02 13:38:06;;;;;;;11.33;7.90;;;;;;;;;;779838;179;639377;-71
2021/04/02 13:40:32;;;;;;;15.00;10.43;;;;;;;;;;783758;179;633079;-74
2021/04/02 13:42:58;;;;;;;14.18;7.55;;;;;;;;;;779172;179;627008;-73
2021/04/02 13:45:23;;;;;;;15.43;10.40;;;;;;;;;;780890;179;626305;-75
2021/04/02 13:47:50;;;;;;;16.27;9.53;;;;;;;;;;778960;179;707201;-75
2021/04/02 13:50:16;;;;;;;18.27;11.20;;;;;;;;;;785389;179;623442;-77
2021/04/02 13:52:42;;;;;;;19.20;10.50;;;;;;;;;;779896;179;635838;-72
2021/04/02 13:55:08;;;;;;;12.97;8.90;;;;;;;;;;778380;179;628540;-73
2021/04/02 13:57:34;;;;;;;15.37;10.07;;;;;;;;;;784755;179;632997;-71